Aviation Digital Data Service (ADDS)

Output produced by TAFs form (0330 UTC 01 August 2015)
found at http://aviationweather.gov/adds/tafs/
 
KAEG 312326Z 0100/0124 VRB06KT P6SM VCTS SCT060CB BKN110 
     TEMPO 0100/0102 VRB15G25KT -TSRA BKN050CB 
     FM010200 16006KT P6SM VCSH SCT060 BKN100 
     FM010600 VRB05KT P6SM FEW035 BKN100 
     FM012100 21010KT P6SM VCTS SCT060CB BKN100